sensor_id;sensor_type;location;lat;lon;timestamp;P1;durP1;ratioP1;P2;durP2;ratioP2
11955;SDS011;6038;52.276;10.530;2022-08-21T00:00:17;2.83;;;1.67;;
11955;SDS011;6038;52.276;10.530;2022-08-21T00:02:49;2.40;;;1.17;;
11955;SDS011;6038;52.276;10.530;2022-08-21T00:05:15;3.40;;;1.50;;
11955;SDS011;6038;52.276;10.530;2022-08-21T00:07:41;3.92;;;1.25;;
11955;SDS011;6038;52.276;10.530;2022-08-21T00:10:07;3.25;;;1.40;;
11955;SDS011;6038;52.276;10.530;2022-08-21T00:12:33;3.72;;;1.55;;
11955;SDS011;6038;52.276;10.530;2022-08-21T00:14:59;3.83;;;1.55;;
11955;SDS011;6038;52.276;10.530;2022-08-21T00:17:25;2.58;;;1.52;;
11955;SDS011;6038;52.276;10.530;2022-08-21T00:19:51;1.95;;;1.23;;
11955;SDS011;6038;52.276;10.530;2022-08-21T00:22:17;5.70;;;1.80;;
11955;SDS011;6038;52.276;10.530;2022-08-21T00:24:43;3.38;;;1.60;;
11955;SDS011;6038;52.276;10.530;2022-08-21T00:27:09;4.45;;;1.52;;
11955;SDS011;6038;52.276;10.530;2022-08-21T00:29:35;3.05;;;1.60;;
11955;SDS011;6038;52.276;10.530;2022-08-21T00:32:01;2.65;;;1.60;;
11955;SDS011;6038;52.276;10.530;2022-08-21T00:34:27;3.28;;;1.60;;
11955;SDS011;6038;52.276;10.530;2022-08-21T00:36:53;3.03;;;1.65;;
11955;SDS011;6038;52.276;10.530;2022-08-21T00:39:19;2.60;;;1.60;;
11955;SDS011;6038;52.276;10.530;2022-08-21T00:41:46;3.20;;;1.63;;
11955;SDS011;6038;52.276;10.530;2022-08-21T00:44:12;3.08;;;1.90;;
11955;SDS011;6038;52.276;10.530;2022-08-21T00:46:39;2.38;;;1.45;;
11955;SDS011;6038;52.276;10.530;2022-08-21T00:49:06;4.72;;;1.90;;
11955;SDS011;6038;52.276;10.530;2022-08-21T00:51:35;3.05;;;1.48;;
11955;SDS011;6038;52.276;10.530;2022-08-21T00:54:02;3.78;;;1.50;;
11955;SDS011;6038;52.276;10.530;2022-08-21T00:56:28;4.32;;;1.60;;
11955;SDS011;6038;52.276;10.530;2022-08-21T00:58:54;3.05;;;1.50;;
11955;SDS011;6038;52.276;10.530;2022-08-21T01:01:21;3.85;;;1.70;;
11955;SDS011;6038;52.276;10.530;2022-08-21T01:03:47;3.05;;;1.60;;
11955;SDS011;6038;52.276;10.530;2022-08-21T01:06:14;2.22;;;1.50;;
11955;SDS011;6038;52.276;10.530;2022-08-21T01:08:40;2.15;;;1.35;;
11955;SDS011;6038;52.276;10.530;2022-08-21T01:11:06;5.50;;;2.00;;
11955;SDS011;6038;52.276;10.530;2022-08-21T01:13:34;3.33;;;1.60;;
11955;SDS011;6038;52.276;10.530;2022-08-21T01:16:00;5.47;;;1.70;;
11955;SDS011;6038;52.276;10.530;2022-08-21T01:18:28;4.20;;;1.70;;
11955;SDS011;6038;52.276;10.530;2022-08-21T01:23:59;4.78;;;1.80;;
11955;SDS011;6038;52.276;10.530;2022-08-21T01:26:27;5.75;;;1.77;;
11955;SDS011;6038;52.276;10.530;2022-08-21T01:31:37;2.60;;;1.50;;
11955;SDS011;6038;52.276;10.530;2022-08-21T01:34:04;4.35;;;1.58;;
11955;SDS011;6038;52.276;10.530;2022-08-21T01:36:30;3.50;;;1.65;;
11955;SDS011;6038;52.276;10.530;2022-08-21T01:38:56;5.15;;;1.80;;
11955;SDS011;6038;52.276;10.530;2022-08-21T01:41:22;4.40;;;1.60;;
11955;SDS011;6038;52.276;10.530;2022-08-21T01:43:48;5.35;;;1.80;;
11955;SDS011;6038;52.276;10.530;2022-08-21T01:46:15;2.75;;;1.65;;
11955;SDS011;6038;52.276;10.530;2022-08-21T01:48:42;2.58;;;1.60;;
11955;SDS011;6038;52.276;10.530;2022-08-21T01:51:08;2.97;;;1.52;;
11955;SDS011;6038;52.276;10.530;2022-08-21T01:53:34;5.40;;;1.88;;
11955;SDS011;6038;52.276;10.530;2022-08-21T01:56:03;3.75;;;1.90;;
11955;SDS011;6038;52.276;10.530;2022-08-21T01:58:29;2.75;;;1.58;;
11955;SDS011;6038;52.276;10.530;2022-08-21T02:00:55;3.63;;;1.70;;
11955;SDS011;6038;52.276;10.530;2022-08-21T02:03:21;4.43;;;2.08;;
11955;SDS011;6038;52.276;10.530;2022-08-21T02:05:47;2.17;;;1.50;;
11955;SDS011;6038;52.276;10.530;2022-08-21T02:08:13;3.80;;;1.90;;
11955;SDS011;6038;52.276;10.530;2022-08-21T02:10:39;4.97;;;2.30;;
11955;SDS011;6038;52.276;10.530;2022-08-21T02:13:06;3.22;;;1.90;;
11955;SDS011;6038;52.276;10.530;2022-08-21T02:15:33;3.30;;;2.15;;
11955;SDS011;6038;52.276;10.530;2022-08-21T02:18:00;3.08;;;2.13;;
11955;SDS011;6038;52.276;10.530;2022-08-21T02:20:28;3.00;;;2.05;;
11955;SDS011;6038;52.276;10.530;2022-08-21T02:22:54;3.40;;;2.03;;
11955;SDS011;6038;52.276;10.530;2022-08-21T02:25:21;5.75;;;2.35;;
11955;SDS011;6038;52.276;10.530;2022-08-21T02:27:47;3.30;;;2.10;;
11955;SDS011;6038;52.276;10.530;2022-08-21T02:30:15;3.27;;;2.13;;
11955;SDS011;6038;52.276;10.530;2022-08-21T02:32:41;3.45;;;1.98;;
11955;SDS011;6038;52.276;10.530;2022-08-21T02:35:08;3.77;;;2.20;;
11955;SDS011;6038;52.276;10.530;2022-08-21T02:37:34;4.13;;;2.40;;
11955;SDS011;6038;52.276;10.530;2022-08-21T02:40:08;4.15;;;2.25;;
11955;SDS011;6038;52.276;10.530;2022-08-21T02:42:36;4.63;;;2.60;;
11955;SDS011;6038;52.276;10.530;2022-08-21T02:45:03;5.32;;;2.55;;
11955;SDS011;6038;52.276;10.530;2022-08-21T02:47:30;5.65;;;2.65;;
11955;SDS011;6038;52.276;10.530;2022-08-21T02:49:56;3.75;;;2.28;;
11955;SDS011;6038;52.276;10.530;2022-08-21T02:52:22;4.22;;;2.90;;
11955;SDS011;6038;52.276;10.530;2022-08-21T02:54:49;4.13;;;2.57;;
11955;SDS011;6038;52.276;10.530;2022-08-21T02:57:15;3.37;;;2.70;;
11955;SDS011;6038;52.276;10.530;2022-08-21T02:59:41;3.42;;;2.50;;
11955;SDS011;6038;52.276;10.530;2022-08-21T03:02:07;4.63;;;2.75;;
11955;SDS011;6038;52.276;10.530;2022-08-21T03:04:33;3.00;;;2.22;;
11955;SDS011;6038;52.276;10.530;2022-08-21T03:06:59;4.20;;;2.35;;
11955;SDS011;6038;52.276;10.530;2022-08-21T03:09:25;3.97;;;2.38;;
11955;SDS011;6038;52.276;10.530;2022-08-21T03:11:51;3.67;;;2.17;;
11955;SDS011;6038;52.276;10.530;2022-08-21T03:14:17;4.57;;;2.27;;
11955;SDS011;6038;52.276;10.530;2022-08-21T03:16:43;4.57;;;2.20;;
11955;SDS011;6038;52.276;10.530;2022-08-21T03:19:09;4.30;;;2.17;;
11955;SDS011;6038;52.276;10.530;2022-08-21T03:21:35;3.63;;;1.90;;
11955;SDS011;6038;52.276;10.530;2022-08-21T03:24:02;5.97;;;2.50;;
11955;SDS011;6038;52.276;10.530;2022-08-21T03:26:29;3.57;;;2.00;;
11955;SDS011;6038;52.276;10.530;2022-08-21T03:28:55;3.87;;;2.17;;
11955;SDS011;6038;52.276;10.530;2022-08-21T03:31:22;5.23;;;2.30;;
11955;SDS011;6038;52.276;10.530;2022-08-21T03:33:48;5.03;;;2.10;;
11955;SDS011;6038;52.276;10.530;2022-08-21T03:36:15;3.80;;;2.47;;
11955;SDS011;6038;52.276;10.530;2022-08-21T03:38:41;4.93;;;2.10;;
11955;SDS011;6038;52.276;10.530;2022-08-21T03:41:08;2.93;;;2.30;;
11955;SDS011;6038;52.276;10.530;2022-08-21T03:43:34;2.80;;;2.20;;
11955;SDS011;6038;52.276;10.530;2022-08-21T03:46:01;4.03;;;2.70;;
11955;SDS011;6038;52.276;10.530;2022-08-21T03:48:28;5.97;;;2.90;;
11955;SDS011;6038;52.276;10.530;2022-08-21T03:50:54;4.70;;;2.40;;
11955;SDS011;6038;52.276;10.530;2022-08-21T03:53:21;5.77;;;2.33;;
11955;SDS011;6038;52.276;10.530;2022-08-21T03:55:48;4.57;;;2.30;;
11955;SDS011;6038;52.276;10.530;2022-08-21T03:58:16;3.10;;;2.20;;
11955;SDS011;6038;52.276;10.530;2022-08-21T04:00:46;2.57;;;2.00;;
11955;SDS011;6038;52.276;10.530;2022-08-21T04:03:12;5.20;;;2.43;;
11955;SDS011;6038;52.276;10.530;2022-08-21T04:05:38;3.10;;;2.03;;
11955;SDS011;6038;52.276;10.530;2022-08-21T04:08:06;3.27;;;2.23;;
11955;SDS011;6038;52.276;10.530;2022-08-21T04:10:33;3.47;;;2.30;;
11955;SDS011;6038;52.276;10.530;2022-08-21T04:13:00;3.33;;;2.30;;
11955;SDS011;6038;52.276;10.530;2022-08-21T04:15:26;4.40;;;2.20;;
11955;SDS011;6038;52.276;10.530;2022-08-21T04:17:52;6.13;;;2.80;;
11955;SDS011;6038;52.276;10.530;2022-08-21T04:20:20;4.83;;;2.47;;
11955;SDS011;6038;52.276;10.530;2022-08-21T04:22:46;6.23;;;2.50;;
11955;SDS011;6038;52.276;10.530;2022-08-21T04:25:13;4.50;;;2.20;;
11955;SDS011;6038;52.276;10.530;2022-08-21T04:27:40;5.13;;;2.13;;
11955;SDS011;6038;52.276;10.530;2022-08-21T04:30:06;4.03;;;2.13;;
11955;SDS011;6038;52.276;10.530;2022-08-21T04:32:33;3.70;;;2.17;;
11955;SDS011;6038;52.276;10.530;2022-08-21T04:35:00;4.67;;;2.10;;
11955;SDS011;6038;52.276;10.530;2022-08-21T04:37:27;3.40;;;2.33;;
11955;SDS011;6038;52.276;10.530;2022-08-21T04:39:53;6.07;;;2.30;;
11955;SDS011;6038;52.276;10.530;2022-08-21T04:42:22;7.97;;;2.60;;
11955;SDS011;6038;52.276;10.530;2022-08-21T04:47:14;5.00;;;2.67;;
11955;SDS011;6038;52.276;10.530;2022-08-21T04:49:41;3.83;;;2.17;;
11955;SDS011;6038;52.276;10.530;2022-08-21T04:52:07;4.50;;;2.37;;
11955;SDS011;6038;52.276;10.530;2022-08-21T04:54:33;4.43;;;2.20;;
11955;SDS011;6038;52.276;10.530;2022-08-21T04:57:00;5.60;;;2.07;;
11955;SDS011;6038;52.276;10.530;2022-08-21T04:59:31;3.90;;;2.13;;
11955;SDS011;6038;52.276;10.530;2022-08-21T05:01:59;2.43;;;2.20;;
11955;SDS011;6038;52.276;10.530;2022-08-21T05:04:27;4.83;;;2.33;;
11955;SDS011;6038;52.276;10.530;2022-08-21T05:06:55;8.93;;;2.83;;
11955;SDS011;6038;52.276;10.530;2022-08-21T05:09:22;3.67;;;2.20;;
11955;SDS011;6038;52.276;10.530;2022-08-21T05:11:48;2.40;;;2.07;;
11955;SDS011;6038;52.276;10.530;2022-08-21T05:14:16;3.67;;;2.33;;
11955;SDS011;6038;52.276;10.530;2022-08-21T05:16:42;3.37;;;2.10;;
11955;SDS011;6038;52.276;10.530;2022-08-21T05:19:09;3.53;;;2.17;;
11955;SDS011;6038;52.276;10.530;2022-08-21T05:21:35;5.70;;;2.30;;
11955;SDS011;6038;52.276;10.530;2022-08-21T05:24:02;3.23;;;2.47;;
11955;SDS011;6038;52.276;10.530;2022-08-21T05:26:28;5.17;;;2.93;;
11955;SDS011;6038;52.276;10.530;2022-08-21T05:28:54;4.20;;;2.40;;
11955;SDS011;6038;52.276;10.530;2022-08-21T05:31:20;6.00;;;2.30;;
11955;SDS011;6038;52.276;10.530;2022-08-21T05:33:47;5.63;;;1.90;;
11955;SDS011;6038;52.276;10.530;2022-08-21T05:36:13;7.13;;;2.20;;
11955;SDS011;6038;52.276;10.530;2022-08-21T05:38:39;2.83;;;2.00;;
11955;SDS011;6038;52.276;10.530;2022-08-21T05:41:05;4.17;;;1.90;;
11955;SDS011;6038;52.276;10.530;2022-08-21T05:43:32;4.80;;;2.10;;
11955;SDS011;6038;52.276;10.530;2022-08-21T05:46:01;3.60;;;2.37;;
11955;SDS011;6038;52.276;10.530;2022-08-21T05:48:27;4.40;;;2.37;;
11955;SDS011;6038;52.276;10.530;2022-08-21T05:50:53;6.47;;;2.13;;
11955;SDS011;6038;52.276;10.530;2022-08-21T05:53:20;3.77;;;2.00;;
11955;SDS011;6038;52.276;10.530;2022-08-21T05:55:46;3.33;;;1.73;;
11955;SDS011;6038;52.276;10.530;2022-08-21T05:58:17;5.23;;;1.90;;
11955;SDS011;6038;52.276;10.530;2022-08-21T06:00:43;4.17;;;1.77;;
11955;SDS011;6038;52.276;10.530;2022-08-21T06:03:20;3.73;;;1.87;;
11955;SDS011;6038;52.276;10.530;2022-08-21T06:05:46;4.47;;;2.10;;
11955;SDS011;6038;52.276;10.530;2022-08-21T06:08:13;3.38;;;2.05;;
11955;SDS011;6038;52.276;10.530;2022-08-21T06:10:39;4.83;;;2.30;;
11955;SDS011;6038;52.276;10.530;2022-08-21T06:13:05;3.10;;;1.90;;
11955;SDS011;6038;52.276;10.530;2022-08-21T06:15:32;6.38;;;2.30;;
11955;SDS011;6038;52.276;10.530;2022-08-21T06:17:58;4.28;;;2.20;;
11955;SDS011;6038;52.276;10.530;2022-08-21T06:20:24;3.00;;;1.83;;
11955;SDS011;6038;52.276;10.530;2022-08-21T06:22:50;3.22;;;2.00;;
11955;SDS011;6038;52.276;10.530;2022-08-21T06:25:16;4.85;;;2.33;;
11955;SDS011;6038;52.276;10.530;2022-08-21T06:27:43;5.00;;;2.10;;
11955;SDS011;6038;52.276;10.530;2022-08-21T06:30:09;4.35;;;2.10;;
11955;SDS011;6038;52.276;10.530;2022-08-21T06:32:35;5.53;;;2.10;;
11955;SDS011;6038;52.276;10.530;2022-08-21T06:35:02;3.97;;;2.15;;
11955;SDS011;6038;52.276;10.530;2022-08-21T06:37:28;3.55;;;2.17;;
11955;SDS011;6038;52.276;10.530;2022-08-21T06:39:54;5.60;;;2.40;;
11955;SDS011;6038;52.276;10.530;2022-08-21T06:42:20;4.32;;;2.28;;
11955;SDS011;6038;52.276;10.530;2022-08-21T06:44:46;3.45;;;2.08;;
11955;SDS011;6038;52.276;10.530;2022-08-21T06:47:12;4.30;;;2.35;;
11955;SDS011;6038;52.276;10.530;2022-08-21T06:49:39;3.42;;;2.40;;
11955;SDS011;6038;52.276;10.530;2022-08-21T06:52:09;3.40;;;1.95;;
11955;SDS011;6038;52.276;10.530;2022-08-21T06:54:35;2.78;;;1.90;;
11955;SDS011;6038;52.276;10.530;2022-08-21T06:57:01;3.58;;;2.50;;
11955;SDS011;6038;52.276;10.530;2022-08-21T06:59:27;2.42;;;1.92;;
11955;SDS011;6038;52.276;10.530;2022-08-21T07:01:53;3.10;;;1.95;;
11955;SDS011;6038;52.276;10.530;2022-08-21T07:04:20;4.03;;;2.20;;
11955;SDS011;6038;52.276;10.530;2022-08-21T07:09:12;4.60;;;2.50;;
11955;SDS011;6038;52.276;10.530;2022-08-21T07:11:38;6.20;;;2.25;;
11955;SDS011;6038;52.276;10.530;2022-08-21T07:14:04;3.17;;;2.33;;
11955;SDS011;6038;52.276;10.530;2022-08-21T07:16:30;3.35;;;2.13;;
11955;SDS011;6038;52.276;10.530;2022-08-21T07:18:56;4.97;;;2.20;;
11955;SDS011;6038;52.276;10.530;2022-08-21T07:21:22;2.78;;;1.95;;
11955;SDS011;6038;52.276;10.530;2022-08-21T07:23:49;2.85;;;1.98;;
11955;SDS011;6038;52.276;10.530;2022-08-21T07:26:16;3.30;;;2.10;;
11955;SDS011;6038;52.276;10.530;2022-08-21T07:28:42;5.07;;;2.40;;
11955;SDS011;6038;52.276;10.530;2022-08-21T07:31:09;4.15;;;2.47;;
11955;SDS011;6038;52.276;10.530;2022-08-21T07:33:38;4.20;;;2.45;;
11955;SDS011;6038;52.276;10.530;2022-08-21T07:36:05;2.95;;;2.10;;
11955;SDS011;6038;52.276;10.530;2022-08-21T07:38:31;2.97;;;2.50;;
11955;SDS011;6038;52.276;10.530;2022-08-21T07:40:57;4.15;;;2.35;;
11955;SDS011;6038;52.276;10.530;2022-08-21T07:43:25;3.22;;;2.10;;
11955;SDS011;6038;52.276;10.530;2022-08-21T07:45:51;5.95;;;2.40;;
11955;SDS011;6038;52.276;10.530;2022-08-21T07:48:19;4.70;;;1.88;;
11955;SDS011;6038;52.276;10.530;2022-08-21T07:50:45;2.58;;;2.10;;
11955;SDS011;6038;52.276;10.530;2022-08-21T07:53:11;3.25;;;2.17;;
11955;SDS011;6038;52.276;10.530;2022-08-21T07:55:37;3.38;;;1.90;;
11955;SDS011;6038;52.276;10.530;2022-08-21T07:58:03;2.83;;;1.92;;
11955;SDS011;6038;52.276;10.530;2022-08-21T08:00:29;3.58;;;2.10;;
11955;SDS011;6038;52.276;10.530;2022-08-21T08:02:56;3.97;;;2.20;;
11955;SDS011;6038;52.276;10.530;2022-08-21T08:05:26;2.63;;;1.80;;
11955;SDS011;6038;52.276;10.530;2022-08-21T08:07:53;3.65;;;1.77;;
11955;SDS011;6038;52.276;10.530;2022-08-21T08:10:19;3.20;;;1.85;;
11955;SDS011;6038;52.276;10.530;2022-08-21T08:12:46;2.42;;;1.75;;
11955;SDS011;6038;52.276;10.530;2022-08-21T08:15:16;3.75;;;1.77;;
11955;SDS011;6038;52.276;10.530;2022-08-21T08:17:43;5.18;;;2.00;;
11955;SDS011;6038;52.276;10.530;2022-08-21T08:20:10;5.75;;;2.10;;
11955;SDS011;6038;52.276;10.530;2022-08-21T08:22:37;3.90;;;1.63;;
11955;SDS011;6038;52.276;10.530;2022-08-21T08:25:04;5.07;;;2.17;;
11955;SDS011;6038;52.276;10.530;2022-08-21T08:27:30;2.13;;;1.50;;
11955;SDS011;6038;52.276;10.530;2022-08-21T08:29:56;4.65;;;2.20;;
11955;SDS011;6038;52.276;10.530;2022-08-21T08:32:23;3.65;;;2.20;;
11955;SDS011;6038;52.276;10.530;2022-08-21T08:34:49;4.72;;;2.33;;
11955;SDS011;6038;52.276;10.530;2022-08-21T08:37:17;4.18;;;1.98;;
11955;SDS011;6038;52.276;10.530;2022-08-21T08:39:43;4.90;;;2.28;;
11955;SDS011;6038;52.276;10.530;2022-08-21T08:42:11;3.90;;;2.13;;
11955;SDS011;6038;52.276;10.530;2022-08-21T08:44:41;3.25;;;2.30;;
11955;SDS011;6038;52.276;10.530;2022-08-21T08:47:08;7.32;;;2.58;;
11955;SDS011;6038;52.276;10.530;2022-08-21T08:52:21;4.80;;;2.08;;
11955;SDS011;6038;52.276;10.530;2022-08-21T08:54:56;5.03;;;2.17;;
11955;SDS011;6038;52.276;10.530;2022-08-21T08:57:25;5.85;;;2.63;;
11955;SDS011;6038;52.276;10.530;2022-08-21T08:59:53;3.75;;;2.00;;
11955;SDS011;6038;52.276;10.530;2022-08-21T09:02:20;4.68;;;2.42;;
11955;SDS011;6038;52.276;10.530;2022-08-21T09:04:48;5.03;;;2.17;;
11955;SDS011;6038;52.276;10.530;2022-08-21T09:09:49;7.28;;;2.47;;
11955;SDS011;6038;52.276;10.530;2022-08-21T09:23:05;6.05;;;3.03;;
11955;SDS011;6038;52.276;10.530;2022-08-21T09:25:50;5.60;;;2.40;;
11955;SDS011;6038;52.276;10.530;2022-08-21T09:28:18;4.68;;;2.28;;
11955;SDS011;6038;52.276;10.530;2022-08-21T09:30:44;5.68;;;2.50;;
11955;SDS011;6038;52.276;10.530;2022-08-21T09:33:11;5.93;;;2.72;;
11955;SDS011;6038;52.276;10.530;2022-08-21T09:35:47;9.77;;;2.50;;
11955;SDS011;6038;52.276;10.530;2022-08-21T09:38:22;4.93;;;2.45;;
11955;SDS011;6038;52.276;10.530;2022-08-21T09:40:54;6.93;;;2.70;;
11955;SDS011;6038;52.276;10.530;2022-08-21T09:43:22;6.45;;;2.33;;
11955;SDS011;6038;52.276;10.530;2022-08-21T09:46:02;6.38;;;2.75;;
11955;SDS011;6038;52.276;10.530;2022-08-21T09:48:28;10.95;;;3.13;;
11955;SDS011;6038;52.276;10.530;2022-08-21T09:51:07;10.27;;;2.75;;
11955;SDS011;6038;52.276;10.530;2022-08-21T09:53:33;7.53;;;2.55;;
11955;SDS011;6038;52.276;10.530;2022-08-21T09:58:46;8.38;;;2.95;;
11955;SDS011;6038;52.276;10.530;2022-08-21T10:01:13;10.80;;;2.90;;
11955;SDS011;6038;52.276;10.530;2022-08-21T10:03:40;7.40;;;2.45;;
11955;SDS011;6038;52.276;10.530;2022-08-21T10:06:07;8.45;;;2.70;;
11955;SDS011;6038;52.276;10.530;2022-08-21T10:08:36;5.88;;;2.28;;
11955;SDS011;6038;52.276;10.530;2022-08-21T10:11:05;7.03;;;2.72;;
11955;SDS011;6038;52.276;10.530;2022-08-21T10:16:19;5.53;;;2.53;;
11955;SDS011;6038;52.276;10.530;2022-08-21T10:19:02;8.63;;;2.80;;
11955;SDS011;6038;52.276;10.530;2022-08-21T10:21:36;6.95;;;2.30;;
11955;SDS011;6038;52.276;10.530;2022-08-21T10:24:39;7.25;;;2.55;;
11955;SDS011;6038;52.276;10.530;2022-08-21T10:37:36;9.48;;;2.72;;
11955;SDS011;6038;52.276;10.530;2022-08-21T10:45:46;6.03;;;2.10;;
11955;SDS011;6038;52.276;10.530;2022-08-21T10:51:11;5.55;;;2.47;;
11955;SDS011;6038;52.276;10.530;2022-08-21T10:53:57;5.18;;;2.20;;
11955;SDS011;6038;52.276;10.530;2022-08-21T10:56:30;5.32;;;2.55;;
11955;SDS011;6038;52.276;10.530;2022-08-21T11:01:24;6.38;;;2.42;;
11955;SDS011;6038;52.276;10.530;2022-08-21T11:06:33;6.90;;;2.80;;
11955;SDS011;6038;52.276;10.530;2022-08-21T11:09:13;8.63;;;2.70;;
11955;SDS011;6038;52.276;10.530;2022-08-21T11:11:59;5.53;;;2.40;;
11955;SDS011;6038;52.276;10.530;2022-08-21T11:17:02;6.45;;;2.25;;
11955;SDS011;6038;52.276;10.530;2022-08-21T11:19:42;6.25;;;2.40;;
11955;SDS011;6038;52.276;10.530;2022-08-21T11:22:13;7.95;;;2.60;;
11955;SDS011;6038;52.276;10.530;2022-08-21T11:24:49;6.30;;;2.33;;
11955;SDS011;6038;52.276;10.530;2022-08-21T11:29:47;6.47;;;2.55;;
11955;SDS011;6038;52.276;10.530;2022-08-21T11:37:30;6.32;;;2.80;;
11955;SDS011;6038;52.276;10.530;2022-08-21T11:42:47;7.70;;;2.60;;
11955;SDS011;6038;52.276;10.530;2022-08-21T11:45:21;6.78;;;2.15;;
11955;SDS011;6038;52.276;10.530;2022-08-21T11:50:38;7.75;;;2.25;;
11955;SDS011;6038;52.276;10.530;2022-08-21T11:55:33;4.15;;;1.80;;
11955;SDS011;6038;52.276;10.530;2022-08-21T12:00:55;3.97;;;2.28;;
11955;SDS011;6038;52.276;10.530;2022-08-21T12:03:27;4.13;;;1.85;;
11955;SDS011;6038;52.276;10.530;2022-08-21T12:05:55;4.45;;;2.00;;
11955;SDS011;6038;52.276;10.530;2022-08-21T12:13:28;3.40;;;1.75;;
11955;SDS011;6038;52.276;10.530;2022-08-21T12:16:11;4.18;;;2.00;;
11955;SDS011;6038;52.276;10.530;2022-08-21T12:18:38;5.68;;;1.88;;
11955;SDS011;6038;52.276;10.530;2022-08-21T12:21:23;4.43;;;2.25;;
11955;SDS011;6038;52.276;10.530;2022-08-21T12:26:23;4.00;;;1.80;;
11955;SDS011;6038;52.276;10.530;2022-08-21T12:28:50;3.88;;;2.03;;
11955;SDS011;6038;52.276;10.530;2022-08-21T12:31:17;4.32;;;2.00;;
11955;SDS011;6038;52.276;10.530;2022-08-21T12:33:47;5.45;;;2.08;;
11955;SDS011;6038;52.276;10.530;2022-08-21T12:36:17;3.00;;;1.73;;
11955;SDS011;6038;52.276;10.530;2022-08-21T12:41:24;4.20;;;2.03;;
11955;SDS011;6038;52.276;10.530;2022-08-21T12:43:54;3.28;;;1.80;;
11955;SDS011;6038;52.276;10.530;2022-08-21T12:47:06;4.20;;;1.88;;
11955;SDS011;6038;52.276;10.530;2022-08-21T12:49:16;5.63;;;2.00;;
11955;SDS011;6038;52.276;10.530;2022-08-21T12:54:23;2.35;;;1.40;;
11955;SDS011;6038;52.276;10.530;2022-08-21T12:56:57;4.43;;;1.80;;
11955;SDS011;6038;52.276;10.530;2022-08-21T12:59:23;3.08;;;1.45;;
11955;SDS011;6038;52.276;10.530;2022-08-21T13:01:50;3.47;;;1.75;;
11955;SDS011;6038;52.276;10.530;2022-08-21T13:04:18;2.28;;;1.60;;
11955;SDS011;6038;52.276;10.530;2022-08-21T13:06:46;2.20;;;1.50;;
11955;SDS011;6038;52.276;10.530;2022-08-21T13:09:14;4.25;;;1.77;;
11955;SDS011;6038;52.276;10.530;2022-08-21T13:11:41;5.50;;;1.80;;
11955;SDS011;6038;52.276;10.530;2022-08-21T13:14:13;4.85;;;1.60;;
11955;SDS011;6038;52.276;10.530;2022-08-21T13:16:40;3.53;;;1.42;;
11955;SDS011;6038;52.276;10.530;2022-08-21T13:19:07;5.13;;;1.75;;
11955;SDS011;6038;52.276;10.530;2022-08-21T13:21:40;3.45;;;1.83;;
11955;SDS011;6038;52.276;10.530;2022-08-21T13:24:26;3.95;;;2.65;;
11955;SDS011;6038;52.276;10.530;2022-08-21T13:26:52;3.78;;;1.70;;
11955;SDS011;6038;52.276;10.530;2022-08-21T13:29:20;3.00;;;1.70;;
11955;SDS011;6038;52.276;10.530;2022-08-21T13:31:55;2.85;;;1.60;;
11955;SDS011;6038;52.276;10.530;2022-08-21T13:34:23;1.92;;;1.55;;
11955;SDS011;6038;52.276;10.530;2022-08-21T13:36:51;3.17;;;1.67;;
11955;SDS011;6038;52.276;10.530;2022-08-21T13:39:18;2.42;;;1.40;;
11955;SDS011;6038;52.276;10.530;2022-08-21T13:41:45;2.70;;;1.70;;
11955;SDS011;6038;52.276;10.530;2022-08-21T13:46:43;2.38;;;1.55;;
11955;SDS011;6038;52.276;10.530;2022-08-21T13:49:10;2.90;;;1.70;;
11955;SDS011;6038;52.276;10.530;2022-08-21T13:51:38;2.88;;;1.70;;
11955;SDS011;6038;52.276;10.530;2022-08-21T13:56:51;2.90;;;1.60;;
11955;SDS011;6038;52.276;10.530;2022-08-21T13:59:23;5.40;;;1.63;;
11955;SDS011;6038;52.276;10.530;2022-08-21T14:04:18;2.58;;;1.50;;
11955;SDS011;6038;52.276;10.530;2022-08-21T14:06:45;4.47;;;1.70;;
11955;SDS011;6038;52.276;10.530;2022-08-21T14:09:13;4.72;;;2.10;;
11955;SDS011;6038;52.276;10.530;2022-08-21T14:11:40;2.47;;;1.50;;
11955;SDS011;6038;52.276;10.530;2022-08-21T14:14:19;2.97;;;1.73;;
11955;SDS011;6038;52.276;10.530;2022-08-21T14:16:52;3.83;;;1.50;;
11955;SDS011;6038;52.276;10.530;2022-08-21T14:19:20;4.05;;;1.80;;
11955;SDS011;6038;52.276;10.530;2022-08-21T14:21:46;1.95;;;1.40;;
11955;SDS011;6038;52.276;10.530;2022-08-21T14:27:09;3.63;;;1.73;;
11955;SDS011;6038;52.276;10.530;2022-08-21T14:29:38;2.90;;;1.77;;
11955;SDS011;6038;52.276;10.530;2022-08-21T14:32:15;5.68;;;1.92;;
11955;SDS011;6038;52.276;10.530;2022-08-21T14:34:41;6.93;;;1.60;;
11955;SDS011;6038;52.276;10.530;2022-08-21T14:37:07;4.38;;;1.67;;
11955;SDS011;6038;52.276;10.530;2022-08-21T14:39:33;2.55;;;1.60;;
11955;SDS011;6038;52.276;10.530;2022-08-21T14:41:59;2.75;;;1.52;;
11955;SDS011;6038;52.276;10.530;2022-08-21T14:44:25;2.60;;;1.60;;
11955;SDS011;6038;52.276;10.530;2022-08-21T14:46:52;3.10;;;1.73;;
11955;SDS011;6038;52.276;10.530;2022-08-21T14:49:18;3.65;;;1.70;;
11955;SDS011;6038;52.276;10.530;2022-08-21T14:51:44;2.58;;;1.70;;
11955;SDS011;6038;52.276;10.530;2022-08-21T14:54:10;4.30;;;1.80;;
11955;SDS011;6038;52.276;10.530;2022-08-21T14:56:36;3.05;;;1.73;;
11955;SDS011;6038;52.276;10.530;2022-08-21T14:59:04;3.47;;;1.67;;
11955;SDS011;6038;52.276;10.530;2022-08-21T15:01:44;3.83;;;1.73;;
11955;SDS011;6038;52.276;10.530;2022-08-21T15:04:10;4.03;;;1.90;;
11955;SDS011;6038;52.276;10.530;2022-08-21T15:06:36;2.85;;;1.58;;
11955;SDS011;6038;52.276;10.530;2022-08-21T15:09:02;2.90;;;1.45;;
11955;SDS011;6038;52.276;10.530;2022-08-21T15:11:30;4.13;;;1.73;;
11955;SDS011;6038;52.276;10.530;2022-08-21T15:13:58;4.13;;;1.40;;
11955;SDS011;6038;52.276;10.530;2022-08-21T15:16:26;2.80;;;1.77;;
11955;SDS011;6038;52.276;10.530;2022-08-21T15:18:52;3.57;;;1.73;;
11955;SDS011;6038;52.276;10.530;2022-08-21T15:21:18;3.58;;;1.73;;
11955;SDS011;6038;52.276;10.530;2022-08-21T15:23:44;2.70;;;1.58;;
11955;SDS011;6038;52.276;10.530;2022-08-21T15:26:10;4.53;;;1.80;;
11955;SDS011;6038;52.276;10.530;2022-08-21T15:28:36;3.55;;;1.50;;
11955;SDS011;6038;52.276;10.530;2022-08-21T15:31:03;2.10;;;1.30;;
11955;SDS011;6038;52.276;10.530;2022-08-21T15:33:29;3.33;;;1.48;;
11955;SDS011;6038;52.276;10.530;2022-08-21T15:35:56;2.97;;;1.63;;
11955;SDS011;6038;52.276;10.530;2022-08-21T15:38:22;1.58;;;1.42;;
11955;SDS011;6038;52.276;10.530;2022-08-21T15:40:48;2.75;;;1.60;;
11955;SDS011;6038;52.276;10.530;2022-08-21T15:43:56;4.38;;;1.63;;
11955;SDS011;6038;52.276;10.530;2022-08-21T15:46:04;4.38;;;1.80;;
11955;SDS011;6038;52.276;10.530;2022-08-21T15:48:30;3.90;;;1.48;;
11955;SDS011;6038;52.276;10.530;2022-08-21T15:50:57;3.25;;;1.45;;
11955;SDS011;6038;52.276;10.530;2022-08-21T15:53:23;4.55;;;1.67;;
11955;SDS011;6038;52.276;10.530;2022-08-21T15:55:49;2.90;;;1.55;;
11955;SDS011;6038;52.276;10.530;2022-08-21T15:58:15;2.47;;;1.45;;
11955;SDS011;6038;52.276;10.530;2022-08-21T16:00:42;3.10;;;1.60;;
11955;SDS011;6038;52.276;10.530;2022-08-21T16:03:09;3.15;;;1.50;;
11955;SDS011;6038;52.276;10.530;2022-08-21T16:05:38;5.13;;;1.55;;
11955;SDS011;6038;52.276;10.530;2022-08-21T16:08:04;2.78;;;1.70;;
11955;SDS011;6038;52.276;10.530;2022-08-21T16:10:31;2.75;;;1.50;;
11955;SDS011;6038;52.276;10.530;2022-08-21T16:12:57;2.38;;;1.50;;
11955;SDS011;6038;52.276;10.530;2022-08-21T16:15:24;2.72;;;1.55;;
11955;SDS011;6038;52.276;10.530;2022-08-21T16:17:51;3.17;;;1.80;;
11955;SDS011;6038;52.276;10.530;2022-08-21T16:20:20;2.92;;;1.55;;
11955;SDS011;6038;52.276;10.530;2022-08-21T16:22:46;2.80;;;1.60;;
11955;SDS011;6038;52.276;10.530;2022-08-21T16:25:13;3.08;;;1.70;;
11955;SDS011;6038;52.276;10.530;2022-08-21T16:27:40;5.28;;;1.58;;
11955;SDS011;6038;52.276;10.530;2022-08-21T16:30:07;4.03;;;1.77;;
11955;SDS011;6038;52.276;10.530;2022-08-21T16:32:33;3.28;;;1.60;;